Time;durP1;ratioP1;P1;durP2;ratioP2;P2;SDS_P1;SDS_P2;PMS_P1;PMS_P2;Temp;Humidity;BMP_temperature;BMP_pressure;BME280_temperature;BME280_humidity;BME280_pressure;Samples;Min_cycle;Max_cycle;Signal;HPM_P1;HPM_P2
2020/12/26 00:01:14;;;;;;;11.60;8.13;;;6.40;99.90;;;;;;5025582;28;20204;-89
2020/12/26 00:03:40;;;;;;;8.53;7.63;;;6.50;99.90;;;;;;5009174;28;20635;-88
2020/12/26 00:06:06;;;;;;;15.53;8.37;;;6.60;99.90;;;;;;5002319;28;20197;-87
2020/12/26 00:08:35;;;;;;;14.30;8.20;;;6.60;99.90;;;;;;5009573;28;20177;-88
2020/12/26 00:11:02;;;;;;;12.47;7.73;;;6.70;99.90;;;;;;4987385;28;20181;-89
2020/12/26 00:13:28;;;;;;;8.80;6.80;;;6.60;99.90;;;;;;4996739;28;20201;-89
2020/12/26 00:15:53;;;;;;;13.03;7.60;;;6.70;99.90;;;;;;5023951;28;20223;-88
2020/12/26 00:18:19;;;;;;;9.70;7.03;;;6.60;99.90;;;;;;5011712;28;20181;-88
2020/12/26 00:20:45;;;;;;;12.07;7.47;;;6.70;99.90;;;;;;5010381;28;20576;-88
2020/12/26 00:23:11;;;;;;;13.80;8.23;;;6.60;99.90;;;;;;5017170;28;20181;-88
2020/12/26 00:25:36;;;;;;;10.00;8.00;;;6.60;99.90;;;;;;5003976;28;20707;-88
2020/12/26 00:28:05;;;;;;;12.70;7.87;;;6.60;99.90;;;;;;4963848;28;20174;-88
2020/12/26 00:30:30;;;;;;;12.37;8.23;;;6.70;99.90;;;;;;4986898;28;20190;-89
2020/12/26 00:32:56;;;;;;;10.87;8.00;;;6.60;99.90;;;;;;4962820;28;20212;-88
2020/12/26 00:35:21;;;;;;;13.37;6.70;;;6.50;99.90;;;;;;4995695;28;20184;-88
2020/12/26 00:37:47;;;;;;;9.80;6.00;;;6.50;99.90;;;;;;5011021;28;20173;-87
2020/12/26 00:40:13;;;;;;;11.40;4.77;;;6.30;99.90;;;;;;4982658;28;20260;-88
2020/12/26 00:42:38;;;;;;;7.37;5.03;;;6.30;99.90;;;;;;4995209;28;20197;-89
2020/12/26 00:45:04;;;;;;;8.40;4.57;;;6.40;99.90;;;;;;4997561;28;20688;-88
2020/12/26 00:47:29;;;;;;;7.57;4.67;;;6.30;99.90;;;;;;4982656;28;20211;-88
2020/12/26 00:49:55;;;;;;;7.67;4.27;;;6.20;99.90;;;;;;4997374;28;20177;-88
2020/12/26 00:52:21;;;;;;;11.03;4.50;;;6.30;99.90;;;;;;4995423;28;20356;-88
2020/12/26 00:54:46;;;;;;;11.80;5.07;;;6.30;99.90;;;;;;4982672;28;20685;-88
2020/12/26 00:57:12;;;;;;;10.00;4.70;;;6.30;99.90;;;;;;4995515;28;20189;-88
2020/12/26 00:59:38;;;;;;;7.30;4.67;;;6.50;99.90;;;;;;5014068;28;20173;-89
2020/12/26 01:02:06;;;;;;;10.83;5.23;;;6.60;99.90;;;;;;4997764;28;20189;-88
2020/12/26 01:04:32;;;;;;;5.90;4.37;;;6.80;99.90;;;;;;5017038;28;20165;-88
2020/12/26 01:06:58;;;;;;;8.20;4.33;;;6.80;99.90;;;;;;5015110;28;20194;-88
2020/12/26 01:09:24;;;;;;;7.87;4.53;;;6.90;99.90;;;;;;4986807;28;20177;-89
2020/12/26 01:11:53;;;;;;;6.77;4.50;;;6.90;99.90;;;;;;5014480;28;20201;-88
2020/12/26 01:14:19;;;;;;;12.10;5.20;;;7.00;99.90;;;;;;5014914;28;20184;-88
2020/12/26 01:16:51;;;;;;;7.13;5.10;;;7.10;99.90;;;;;;5014774;28;20228;-87
2020/12/26 01:19:18;;;;;;;8.97;5.63;;;7.10;99.90;;;;;;5014723;28;20200;-88
2020/12/26 01:21:52;;;;;;;6.43;4.70;;;7.10;99.90;;;;;;4982138;28;20585;-88
2020/12/26 01:24:21;;;;;;;5.17;4.67;;;7.20;99.90;;;;;;5011274;28;20178;-88
2020/12/26 01:26:48;;;;;;;8.50;5.17;;;7.10;99.90;;;;;;5013161;28;20630;-87
2020/12/26 01:29:14;;;;;;;7.20;4.80;;;7.00;99.90;;;;;;5015581;28;20255;-87
2020/12/26 01:31:41;;;;;;;10.43;5.00;;;7.00;99.90;;;;;;4998481;28;20187;-88
2020/12/26 01:34:07;;;;;;;6.43;5.60;;;6.80;99.90;;;;;;5014095;28;20184;-87
2020/12/26 01:36:32;;;;;;;9.23;4.80;;;6.70;99.90;;;;;;4997850;28;20177;-87
2020/12/26 01:38:58;;;;;;;7.90;5.23;;;6.60;99.90;;;;;;4994395;28;20184;-88
2020/12/26 01:41:23;;;;;;;5.00;4.43;;;6.60;99.90;;;;;;4981407;28;20263;-88
2020/12/26 01:43:57;;;;;;;9.27;4.70;;;6.60;99.90;;;;;;5013972;28;20240;-87
2020/12/26 01:46:26;;;;;;;9.70;5.37;;;6.50;99.90;;;;;;5010684;28;20228;-87
2020/12/26 01:48:52;;;;;;;6.47;4.93;;;6.60;99.90;;;;;;4994448;28;20710;-88
2020/12/26 01:51:19;;;;;;;9.67;4.70;;;6.60;99.90;;;;;;5011511;28;20208;-88
2020/12/26 01:53:47;;;;;;;8.77;4.87;;;6.60;99.90;;;;;;5013513;28;20220;-86
2020/12/26 01:56:13;;;;;;;11.87;5.07;;;6.60;99.90;;;;;;5013840;28;20180;-88
2020/12/26 01:58:41;;;;;;;9.73;5.37;;;6.50;99.90;;;;;;4997757;28;20643;-87
2020/12/26 02:01:07;;;;;;;11.80;5.50;;;6.50;99.90;;;;;;4985005;28;20220;-87
2020/12/26 02:03:32;;;;;;;10.37;5.23;;;6.50;99.90;;;;;;4981330;28;20188;-87
2020/12/26 02:05:58;;;;;;;11.53;5.23;;;6.50;99.90;;;;;;5014133;28;20633;-88
2020/12/26 02:08:24;;;;;;;9.20;5.20;;;6.50;99.90;;;;;;4994850;28;20281;-88
2020/12/26 02:10:49;;;;;;;8.87;5.57;;;6.30;99.90;;;;;;4981740;28;20535;-88
2020/12/26 02:13:15;;;;;;;9.83;5.43;;;6.40;99.90;;;;;;4997119;28;20666;-88
2020/12/26 02:15:40;;;;;;;9.40;5.60;;;6.50;99.90;;;;;;4997783;28;20698;-88
2020/12/26 02:18:06;;;;;;;12.00;5.30;;;6.60;99.90;;;;;;5000312;28;20606;-87
2020/12/26 02:20:32;;;;;;;7.77;4.80;;;6.70;99.90;;;;;;5036890;28;20191;-88
2020/12/26 02:23:01;;;;;;;10.37;4.97;;;6.70;99.90;;;;;;5000222;28;20202;-89
2020/12/26 02:25:27;;;;;;;8.10;5.10;;;6.70;99.90;;;;;;5017222;28;20185;-88
2020/12/26 02:27:54;;;;;;;11.43;5.17;;;6.70;99.90;;;;;;4978186;28;20182;-88
2020/12/26 02:30:19;;;;;;;8.10;5.50;;;6.60;99.90;;;;;;4999299;28;20634;-88
2020/12/26 02:32:45;;;;;;;6.90;4.90;;;6.60;99.90;;;;;;4981086;28;20255;-88
2020/12/26 02:35:10;;;;;;;14.20;5.23;;;6.50;99.90;;;;;;4982777;28;20327;-88
2020/12/26 02:37:36;;;;;;;10.17;5.70;;;6.60;99.90;;;;;;5009305;28;20233;-88
2020/12/26 02:40:02;;;;;;;7.07;4.63;;;6.50;99.90;;;;;;4999502;28;20196;-88
2020/12/26 02:42:28;;;;;;;9.70;5.03;;;6.50;99.90;;;;;;5016717;28;20591;-88
2020/12/26 02:44:53;;;;;;;14.13;5.73;;;6.40;99.90;;;;;;4997099;28;20176;-88
2020/12/26 02:47:19;;;;;;;6.77;5.63;;;6.40;99.90;;;;;;5013544;28;20169;-88
2020/12/26 02:49:45;;;;;;;10.27;5.63;;;6.30;99.90;;;;;;4980734;28;20177;-88
2020/12/26 02:52:10;;;;;;;13.77;5.73;;;6.30;99.90;;;;;;4980770;28;20217;-88
2020/12/26 02:54:36;;;;;;;10.20;6.80;;;6.30;99.90;;;;;;4996950;28;20177;-88
2020/12/26 02:57:01;;;;;;;7.67;5.87;;;6.30;99.90;;;;;;5017036;28;20227;-88
2020/12/26 02:59:27;;;;;;;13.53;6.83;;;6.30;99.90;;;;;;5017357;28;20197;-88
2020/12/26 03:01:53;;;;;;;11.27;6.40;;;6.30;99.90;;;;;;5016292;28;20644;-88
2020/12/26 03:04:18;;;;;;;12.40;7.00;;;6.20;99.90;;;;;;4984493;28;20181;-88
2020/12/26 03:06:44;;;;;;;11.03;7.80;;;6.10;99.90;;;;;;5017091;28;20208;-89
2020/12/26 03:09:10;;;;;;;9.30;7.27;;;6.10;99.90;;;;;;5017379;28;20223;-88
2020/12/26 03:11:35;;;;;;;13.93;7.20;;;6.10;99.90;;;;;;5016487;28;20177;-88
2020/12/26 03:14:01;;;;;;;23.57;8.13;;;6.00;99.90;;;;;;4980995;28;20186;-87
2020/12/26 03:16:26;;;;;;;20.00;7.60;;;6.00;99.90;;;;;;5008636;28;20523;-88
2020/12/26 03:18:52;;;;;;;9.63;7.57;;;6.00;99.90;;;;;;5015759;28;20593;-88
2020/12/26 03:21:18;;;;;;;9.03;6.73;;;6.00;99.90;;;;;;4991948;28;20248;-88
2020/12/26 03:23:43;;;;;;;12.60;7.10;;;6.00;99.90;;;;;;4998175;28;20186;-88
2020/12/26 03:26:09;;;;;;;8.90;6.83;;;6.00;99.90;;;;;;5001669;28;20626;-88
2020/12/26 03:28:35;;;;;;;9.77;7.23;;;6.00;99.90;;;;;;4998398;28;20275;-89
2020/12/26 03:31:00;;;;;;;10.63;7.60;;;6.00;99.90;;;;;;5009234;28;20585;-88
2020/12/26 03:33:26;;;;;;;9.17;7.17;;;6.00;99.90;;;;;;5002003;28;20197;-88
2020/12/26 03:35:52;;;;;;;13.73;8.00;;;5.90;99.90;;;;;;5001676;28;20658;-89
2020/12/26 03:38:17;;;;;;;15.50;6.63;;;5.90;99.90;;;;;;4985465;28;20173;-88
2020/12/26 03:40:43;;;;;;;11.73;6.67;;;6.00;99.90;;;;;;4993117;28;20234;-87
2020/12/26 03:43:09;;;;;;;12.83;7.00;;;5.90;99.90;;;;;;4989300;28;20557;-88
2020/12/26 03:45:35;;;;;;;8.27;6.67;;;6.00;99.90;;;;;;4998321;28;20264;-89
2020/12/26 03:48:00;;;;;;;7.93;7.00;;;6.00;99.90;;;;;;4982236;28;20185;-88
2020/12/26 03:50:26;;;;;;;11.33;7.03;;;6.00;99.90;;;;;;4966227;28;20186;-89
2020/12/26 03:52:52;;;;;;;14.83;6.90;;;6.00;99.90;;;;;;4997887;28;20221;-87
2020/12/26 03:55:17;;;;;;;8.30;6.27;;;6.00;99.90;;;;;;4996778;28;20530;-87
2020/12/26 03:57:43;;;;;;;11.63;7.17;;;5.90;99.90;;;;;;5000318;28;20529;-87
2020/12/26 04:00:08;;;;;;;13.67;7.40;;;5.90;99.90;;;;;;4998400;28;20269;-87
2020/12/26 04:02:34;;;;;;;11.73;6.93;;;5.80;99.90;;;;;;5000463;28;20247;-88
2020/12/26 04:05:00;;;;;;;16.27;6.73;;;5.70;99.90;;;;;;4999421;28;20634;-88
2020/12/26 04:07:25;;;;;;;23.07;7.60;;;5.70;99.90;;;;;;4983473;28;20205;-88
2020/12/26 04:09:51;;;;;;;11.37;6.07;;;5.60;99.90;;;;;;4980516;28;20614;-88
2020/12/26 04:12:17;;;;;;;11.33;6.10;;;5.50;99.90;;;;;;4999541;28;20212;-88
2020/12/26 04:14:42;;;;;;;15.67;6.03;;;5.40;99.90;;;;;;4999420;28;20183;-88
2020/12/26 04:17:08;;;;;;;13.57;6.07;;;5.20;99.90;;;;;;4981909;28;20240;-88
2020/12/26 04:19:33;;;;;;;10.00;5.70;;;5.00;99.90;;;;;;4996209;28;20181;-88
2020/12/26 04:21:59;;;;;;;10.97;5.10;;;5.10;99.90;;;;;;4998545;28;20886;-86
2020/12/26 04:24:25;;;;;;;9.27;5.70;;;5.00;99.90;;;;;;4999332;28;20177;-88
2020/12/26 04:26:51;;;;;;;11.07;5.60;;;4.90;99.90;;;;;;4979673;28;20747;-88
2020/12/26 04:29:21;;;;;;;8.30;4.77;;;4.80;99.90;;;;;;5001109;28;20180;-88
2020/12/26 04:31:48;;;;;;;16.30;5.47;;;4.80;99.90;;;;;;5009155;28;20626;-88
2020/12/26 04:34:13;;;;;;;9.70;4.97;;;4.60;99.90;;;;;;5015229;28;20243;-88
2020/12/26 04:36:39;;;;;;;8.30;6.20;;;4.60;99.90;;;;;;4982994;28;20642;-88
2020/12/26 04:39:04;;;;;;;11.70;5.57;;;4.60;99.90;;;;;;4982839;28;20188;-87
2020/12/26 04:41:32;;;;;;;8.10;5.67;;;4.50;99.90;;;;;;5015070;28;20223;-88
2020/12/26 04:44:00;;;;;;;8.77;5.30;;;4.50;99.90;;;;;;5038634;28;20189;-89
2020/12/26 04:46:26;;;;;;;7.60;5.23;;;4.50;99.90;;;;;;5012991;28;20182;-89
2020/12/26 04:49:07;;;;;;;7.60;4.83;;;4.50;99.90;;;;;;4993221;28;20181;-87
2020/12/26 04:51:38;;;;;;;8.03;5.37;;;4.40;99.90;;;;;;4988259;28;20653;-87
2020/12/26 04:54:25;;;;;;;10.67;4.30;;;4.30;99.90;;;;;;5014836;28;20189;-88
2020/12/26 04:56:56;;;;;;;7.13;4.70;;;4.30;99.90;;;;;;4978903;28;20264;-88
2020/12/26 04:59:22;;;;;;;9.20;4.70;;;4.30;99.90;;;;;;5000404;28;20162;-88
2020/12/26 05:01:49;;;;;;;6.67;4.53;;;4.20;99.90;;;;;;5017213;28;20223;-89
2020/12/26 05:04:15;;;;;;;10.67;4.87;;;4.10;99.90;;;;;;5014221;28;20721;-88
2020/12/26 05:06:50;;;;;;;11.63;4.80;;;4.20;99.90;;;;;;5000062;28;20180;-87
2020/12/26 05:09:16;;;;;;;8.73;4.63;;;4.20;99.90;;;;;;4998621;28;20176;-88
2020/12/26 05:12:11;;;;;;;9.30;4.60;;;4.20;99.90;;;;;;5014651;28;20181;-88
2020/12/26 05:14:37;;;;;;;7.30;4.97;;;4.20;99.90;;;;;;5006912;28;20181;-88
2020/12/26 05:17:03;;;;;;;11.70;4.87;;;4.20;99.90;;;;;;4998324;28;20274;-87
2020/12/26 05:19:29;;;;;;;13.97;4.97;;;4.20;99.90;;;;;;4981392;28;20173;-88
2020/12/26 05:21:56;;;;;;;7.33;4.43;;;4.20;99.90;;;;;;5014340;28;20216;-88
2020/12/26 05:24:22;;;;;;;12.13;4.80;;;4.20;99.90;;;;;;4998275;28;20268;-88
2020/12/26 05:26:49;;;;;;;9.67;3.77;;;4.20;99.90;;;;;;5013230;28;20218;-88
2020/12/26 05:29:16;;;;;;;17.13;4.77;;;4.10;99.90;;;;;;4994578;28;20208;-88
2020/12/26 05:31:58;;;;;;;14.63;4.70;;;4.10;99.90;;;;;;5011565;28;20185;-88
2020/12/26 05:34:35;;;;;;;20.67;5.07;;;4.00;99.90;;;;;;4997694;28;20211;-88
2020/12/26 05:37:02;;;;;;;21.47;5.67;;;4.00;99.90;;;;;;5014379;28;20522;-86
2020/12/26 05:39:32;;;;;;;14.03;5.20;;;3.90;99.90;;;;;;5014059;28;20184;-88
2020/12/26 05:41:58;;;;;;;21.17;4.90;;;4.00;99.90;;;;;;4994421;28;20200;-88
2020/12/26 05:44:26;;;;;;;15.70;4.90;;;4.00;99.90;;;;;;4978388;28;20174;-87
2020/12/26 05:47:03;;;;;;;8.73;4.27;;;3.90;99.90;;;;;;4996048;28;20188;-88
2020/12/26 05:49:36;;;;;;;11.83;4.07;;;3.90;99.90;;;;;;5013864;28;20243;-88
2020/12/26 05:52:09;;;;;;;15.17;4.37;;;3.90;99.90;;;;;;5014008;28;20209;-88
2020/12/26 05:54:37;;;;;;;15.30;4.27;;;3.70;99.90;;;;;;5015173;28;20168;-87
2020/12/26 05:57:05;;;;;;;16.57;4.60;;;3.70;99.90;;;;;;4995025;28;20231;-89
2020/12/26 05:59:31;;;;;;;16.13;4.80;;;3.70;99.90;;;;;;4994338;28;20189;-86
2020/12/26 06:01:57;;;;;;;14.67;5.03;;;3.70;99.90;;;;;;4997362;28;20181;-88
2020/12/26 06:04:24;;;;;;;12.30;4.20;;;3.40;99.90;;;;;;4997708;28;20196;-88
2020/12/26 06:06:54;;;;;;;10.13;4.27;;;3.40;99.90;;;;;;5013311;28;20292;-88
2020/12/26 06:09:20;;;;;;;15.60;4.10;;;3.50;99.90;;;;;;4997989;28;20177;-88
2020/12/26 06:11:48;;;;;;;10.53;4.50;;;3.50;99.90;;;;;;5014420;28;20173;-88
2020/12/26 06:14:17;;;;;;;18.97;4.67;;;3.30;99.90;;;;;;5011543;28;20188;-87
2020/12/26 06:16:48;;;;;;;10.10;3.87;;;3.20;99.90;;;;;;4978105;28;20694;-87
2020/12/26 06:19:21;;;;;;;9.60;4.30;;;3.20;99.90;;;;;;5012150;28;20165;-88
2020/12/26 06:21:50;;;;;;;14.73;3.97;;;3.30;99.90;;;;;;4994309;28;20181;-87
2020/12/26 06:24:17;;;;;;;18.10;4.77;;;3.30;99.90;;;;;;4994374;28;20177;-87
2020/12/26 06:26:48;;;;;;;16.43;4.40;;;3.40;99.90;;;;;;4994327;28;20633;-87
2020/12/26 06:29:16;;;;;;;9.67;4.03;;;3.30;99.90;;;;;;4994484;28;20193;-87
2020/12/26 06:31:44;;;;;;;7.87;3.70;;;3.40;99.90;;;;;;5018142;28;20180;-88
2020/12/26 06:34:11;;;;;;;14.17;4.70;;;3.30;99.90;;;;;;5003717;28;20541;-87
2020/12/26 06:36:38;;;;;;;17.70;4.37;;;3.20;99.90;;;;;;5003226;28;20184;-88
2020/12/26 06:39:30;;;;;;;6.47;3.80;;;3.20;99.90;;;;;;5018007;28;20173;-88
2020/12/26 06:42:16;;;;;;;11.23;3.73;;;3.20;99.90;;;;;;5040866;28;20176;-86
2020/12/26 06:44:44;;;;;;;11.57;4.43;;;3.10;99.90;;;;;;5041266;28;20168;-87
2020/12/26 06:47:37;;;;;;;7.83;4.43;;;2.90;99.90;;;;;;5041366;28;20157;-87
2020/12/26 06:50:35;;;;;;;10.63;3.50;;;2.90;99.90;;;;;;5023365;28;20189;-87
2020/12/26 06:53:01;;;;;;;14.70;4.10;;;2.90;99.90;;;;;;4997903;28;20238;-82
2020/12/26 06:55:42;;;;;;;9.80;3.80;;;2.90;99.90;;;;;;5007990;28;20622;-87
2020/12/26 06:58:31;;;;;;;7.67;3.90;;;2.90;99.90;;;;;;5023325;28;20168;-89
2020/12/26 07:00:57;;;;;;;6.70;4.07;;;2.90;99.90;;;;;;5013127;28;20208;-88
2020/12/26 07:03:29;;;;;;;10.97;3.90;;;3.00;99.90;;;;;;5009949;28;20207;-88
2020/12/26 07:05:56;;;;;;;8.03;4.23;;;3.00;99.90;;;;;;5023986;28;20185;-90
2020/12/26 07:08:24;;;;;;;6.27;3.87;;;2.90;99.90;;;;;;5038617;28;20173;-89
2020/12/26 07:10:49;;;;;;;8.87;3.90;;;2.90;99.90;;;;;;5037255;28;20165;-89
2020/12/26 07:13:48;;;;;;;7.13;4.40;;;2.90;99.90;;;;;;5007969;28;20226;-87
2020/12/26 07:16:39;;;;;;;6.00;3.37;;;2.90;99.90;;;;;;5014789;28;20220;-88
2020/12/26 07:19:19;;;;;;;6.50;4.60;;;2.90;99.90;;;;;;5019498;28;20187;-87
2020/12/26 07:22:12;;;;;;;8.70;3.60;;;2.90;99.90;;;;;;5018405;28;20169;-87
2020/12/26 07:24:40;;;;;;;21.00;4.20;;;2.90;99.90;;;;;;5030126;28;20199;-88
2020/12/26 07:27:17;;;;;;;11.60;4.17;;;3.00;99.90;;;;;;5035084;28;20242;-88
2020/12/26 07:30:06;;;;;;;6.33;4.13;;;3.00;99.90;;;;;;5007255;28;20207;-88
2020/12/26 07:32:41;;;;;;;10.33;3.90;;;3.10;99.90;;;;;;5013049;28;20606;-89
2020/12/26 07:35:13;;;;;;;10.10;4.10;;;3.10;99.90;;;;;;5001618;28;20263;-87
2020/12/26 07:37:40;;;;;;;11.63;4.30;;;3.10;99.90;;;;;;5018041;28;20201;-88
2020/12/26 07:40:06;;;;;;;9.93;4.10;;;3.10;99.90;;;;;;5001270;28;20176;-88
2020/12/26 07:42:33;;;;;;;8.67;4.50;;;3.20;99.90;;;;;;5017116;28;20192;-88
2020/12/26 07:45:09;;;;;;;7.70;3.93;;;3.10;99.90;;;;;;5018751;28;20215;-88
2020/12/26 07:47:55;;;;;;;5.03;3.97;;;3.10;99.90;;;;;;5023731;28;20161;-86
2020/12/26 07:50:23;;;;;;;8.30;3.67;;;3.10;99.90;;;;;;5006111;28;20184;-88
2020/12/26 07:52:49;;;;;;;11.70;4.33;;;3.10;99.90;;;;;;5017248;28;20243;-89
2020/12/26 07:55:17;;;;;;;12.17;4.70;;;3.10;99.90;;;;;;5018660;28;20195;-88
2020/12/26 07:57:42;;;;;;;14.40;4.37;;;3.20;99.90;;;;;;5018948;28;20179;-87
2020/12/26 08:00:19;;;;;;;9.60;4.33;;;3.20;99.90;;;;;;5000782;28;20532;-90
2020/12/26 08:02:52;;;;;;;6.77;4.13;;;3.30;99.90;;;;;;5017673;28;20180;-88
2020/12/26 08:05:26;;;;;;;10.73;4.83;;;3.30;99.90;;;;;;5014571;28;20232;-88
2020/12/26 08:07:53;;;;;;;10.37;4.33;;;3.40;99.90;;;;;;5017560;28;20203;-86
2020/12/26 08:10:19;;;;;;;7.00;3.60;;;3.50;99.90;;;;;;5017421;28;20260;-88
2020/12/26 08:12:49;;;;;;;8.23;3.93;;;3.60;99.90;;;;;;5016722;28;20200;-88
2020/12/26 08:15:33;;;;;;;8.17;4.30;;;3.70;99.90;;;;;;5017232;28;20225;-88
2020/12/26 08:18:02;;;;;;;8.95;4.38;;;3.80;99.90;;;;;;5017511;28;20423;-87
2020/12/26 08:20:29;;;;;;;11.77;4.33;;;3.90;99.90;;;;;;5017037;28;20173;-88
2020/12/26 08:22:56;;;;;;;9.67;4.27;;;3.90;99.90;;;;;;5000105;28;20267;-89
2020/12/26 08:25:25;;;;;;;5.97;4.57;;;4.00;99.90;;;;;;5016607;28;20268;-88
2020/12/26 08:27:51;;;;;;;10.30;4.33;;;3.90;99.90;;;;;;5017449;28;20177;-87
2020/12/26 08:30:34;;;;;;;13.23;4.53;;;4.00;99.90;;;;;;5016688;28;20204;-88
2020/12/26 08:33:07;;;;;;;7.80;4.20;;;4.10;99.90;;;;;;5016409;28;20192;-88
2020/12/26 08:35:35;;;;;;;11.57;4.50;;;4.30;99.90;;;;;;5016651;28;20275;-88
2020/12/26 08:38:13;;;;;;;10.60;5.13;;;4.50;99.90;;;;;;5016803;28;20168;-88
2020/12/26 08:40:40;;;;;;;9.27;4.27;;;4.80;99.90;;;;;;5021619;28;20161;-88
2020/12/26 08:43:13;;;;;;;12.67;4.57;;;4.90;99.90;;;;;;4999495;28;20208;-79
2020/12/26 08:45:39;;;;;;;10.90;4.67;;;5.10;99.90;;;;;;5015228;28;20188;-85
2020/12/26 08:48:16;;;;;;;8.93;4.93;;;5.20;99.90;;;;;;4998911;28;20180;-85
2020/12/26 08:50:42;;;;;;;7.03;4.10;;;5.10;99.90;;;;;;5015739;28;20224;-85
2020/12/26 08:53:09;;;;;;;10.70;4.43;;;5.20;99.90;;;;;;5013513;28;20208;-85
2020/12/26 08:55:52;;;;;;;7.03;4.17;;;5.30;99.90;;;;;;5015413;28;20181;-86
2020/12/26 08:58:26;;;;;;;6.47;4.43;;;5.10;99.90;;;;;;5014772;28;20173;-85
2020/12/26 09:00:53;;;;;;;5.03;4.00;;;5.10;99.90;;;;;;4979062;28;20197;-86
2020/12/26 09:03:24;;;;;;;7.63;4.30;;;5.20;99.90;;;;;;4994129;28;20526;-85
2020/12/26 09:05:51;;;;;;;10.77;4.80;;;5.10;99.90;;;;;;5014730;28;20244;-85
2020/12/26 09:08:17;;;;;;;5.33;3.90;;;5.30;99.90;;;;;;5014493;28;20200;-85
2020/12/26 09:10:42;;;;;;;8.13;4.50;;;5.40;99.90;;;;;;5017822;28;20530;-85
2020/12/26 09:13:11;;;;;;;6.97;3.97;;;5.50;99.90;;;;;;4998068;28;20208;-85
2020/12/26 09:15:56;;;;;;;7.80;4.43;;;5.50;99.90;;;;;;5015937;28;20276;-85
2020/12/26 09:18:24;;;;;;;8.07;4.27;;;5.80;99.90;;;;;;5015212;28;20165;-85
2020/12/26 09:20:58;;;;;;;10.00;4.57;;;5.90;99.90;;;;;;5013956;28;20173;-87
2020/12/26 09:23:38;;;;;;;5.90;3.87;;;6.10;99.90;;;;;;5015071;28;20181;-85
2020/12/26 09:26:13;;;;;;;7.73;3.47;;;7.30;99.90;;;;;;5014588;28;20180;-85
2020/12/26 09:28:44;;;;;;;5.10;3.47;;;9.70;99.90;;;;;;5014566;28;20221;-85
2020/12/26 09:31:11;;;;;;;4.07;2.73;;;12.00;99.90;;;;;;5025556;28;20694;-85
2020/12/26 09:33:37;;;;;;;8.30;3.00;;;13.50;99.90;;;;;;5029597;28;20212;-86
2020/12/26 09:36:08;;;;;;;7.43;3.43;;;12.90;99.90;;;;;;5024878;28;20177;-86
2020/12/26 09:38:34;;;;;;;7.88;2.83;;;12.30;99.90;;;;;;5015590;28;20172;-85
2020/12/26 09:41:18;;;;;;;7.60;3.75;;;11.60;99.90;;;;;;5014929;28;20240;-85
2020/12/26 09:43:46;;;;;;;4.53;2.88;;;12.60;99.90;;;;;;5015232;28;20244;-85
2020/12/26 09:46:12;;;;;;;9.93;2.95;;;13.80;99.90;;;;;;5016308;28;20172;-85
2020/12/26 09:48:38;;;;;;;7.00;3.22;;;14.00;99.90;;;;;;5015169;28;20157;-85
2020/12/26 09:51:09;;;;;;;6.07;3.17;;;12.80;99.90;;;;;;5027609;28;20200;-85
2020/12/26 09:53:35;;;;;;;5.05;3.00;;;11.50;99.90;;;;;;5016603;28;20200;-85
2020/12/26 09:56:00;;;;;;;3.55;3.20;;;10.60;99.90;;;;;;5015876;28;20656;-84
2020/12/26 09:58:26;;;;;;;6.57;3.20;;;10.20;99.90;;;;;;5015593;28;20177;-85
2020/12/26 10:00:51;;;;;;;3.70;3.17;;;9.70;99.90;;;;;;4995053;28;20173;-85
2020/12/26 10:03:17;;;;;;;5.00;2.90;;;9.40;99.90;;;;;;5009965;28;20181;-84
2020/12/26 10:05:43;;;;;;;12.73;3.67;;;9.10;99.90;;;;;;5019095;28;20244;-84
2020/12/26 10:08:08;;;;;;;9.17;3.13;;;8.60;99.90;;;;;;5014216;28;20185;-85
2020/12/26 10:10:34;;;;;;;8.03;3.70;;;8.20;99.90;;;;;;5013114;28;20231;-85
2020/12/26 10:12:59;;;;;;;4.43;3.30;;;8.00;99.90;;;;;;5013207;28;20704;-85
2020/12/26 10:15:25;;;;;;;6.33;3.70;;;7.80;99.90;;;;;;5011090;28;20189;-85
2020/12/26 10:17:51;;;;;;;8.33;4.07;;;7.50;99.90;;;;;;5015725;28;20184;-86
2020/12/26 10:20:16;;;;;;;5.90;3.70;;;7.20;99.90;;;;;;5015631;28;20184;-85
2020/12/26 10:22:42;;;;;;;7.33;3.47;;;7.00;99.90;;;;;;5013190;28;20847;-85
2020/12/26 10:25:07;;;;;;;8.23;3.60;;;6.70;99.90;;;;;;5000706;28;20180;-85
2020/12/26 10:27:33;;;;;;;6.97;4.10;;;6.60;99.90;;;;;;5017520;28;20184;-85
2020/12/26 10:29:59;;;;;;;10.77;4.37;;;6.40;99.90;;;;;;5015356;28;20595;-83
2020/12/26 10:32:24;;;;;;;5.47;4.27;;;6.30;99.90;;;;;;5016479;28;20206;-85
2020/12/26 10:34:50;;;;;;;11.33;4.57;;;6.20;99.90;;;;;;5014915;28;20236;-85
2020/12/26 10:37:16;;;;;;;4.97;3.97;;;6.20;99.90;;;;;;4997826;28;20223;-85
2020/12/26 10:39:42;;;;;;;7.87;4.17;;;6.20;99.90;;;;;;4982536;28;20630;-86
2020/12/26 10:42:08;;;;;;;5.80;3.63;;;6.20;99.90;;;;;;5008369;28;20224;-86
2020/12/26 10:44:34;;;;;;;7.23;4.30;;;6.20;99.90;;;;;;5014475;28;20180;-86
2020/12/26 10:47:00;;;;;;;13.10;4.00;;;6.30;99.90;;;;;;4998259;28;20177;-85
2020/12/26 10:49:25;;;;;;;7.23;3.80;;;6.40;99.90;;;;;;5014611;28;20188;-86
2020/12/26 10:51:51;;;;;;;8.23;4.47;;;6.60;99.90;;;;;;5015276;28;20184;-85
2020/12/26 10:54:17;;;;;;;12.50;4.40;;;7.10;99.90;;;;;;4997490;28;20177;-85
2020/12/26 10:56:49;;;;;;;8.27;4.00;;;7.60;99.90;;;;;;5014448;28;20235;-85
2020/12/26 10:59:15;;;;;;;11.20;4.67;;;9.10;99.90;;;;;;5003914;28;20195;-84
2020/12/26 11:01:41;;;;;;;6.27;3.23;;;9.90;99.90;;;;;;5019341;28;20172;-85
2020/12/26 11:04:06;;;;;;;4.47;3.27;;;10.40;99.90;;;;;;4993445;28;20177;-83
2020/12/26 11:06:33;;;;;;;6.53;3.60;;;10.30;99.90;;;;;;5010710;28;20235;-82
2020/12/26 11:08:58;;;;;;;6.00;3.00;;;9.90;99.90;;;;;;5004836;28;20265;-84
2020/12/26 11:11:24;;;;;;;7.37;3.37;;;9.30;99.90;;;;;;5011407;28;20259;-72
2020/12/26 11:13:50;;;;;;;6.43;2.83;;;8.80;99.90;;;;;;4995329;28;20197;-74
2020/12/26 11:16:17;;;;;;;14.50;4.37;;;8.50;99.90;;;;;;5012905;28;20188;-74
2020/12/26 11:18:45;;;;;;;12.87;4.20;;;8.20;99.90;;;;;;5015374;28;20586;-74
2020/12/26 11:21:17;;;;;;;6.50;3.10;;;7.90;99.90;;;;;;5015028;28;20177;-77
2020/12/26 11:23:44;;;;;;;7.20;3.10;;;7.70;99.90;;;;;;5014830;28;20177;-73
2020/12/26 11:26:12;;;;;;;3.90;2.50;;;7.50;99.90;;;;;;5016684;28;20536;-73
2020/12/26 11:28:38;;;;;;;7.63;2.27;;;7.40;99.90;;;;;;5015972;28;20231;-75
2020/12/26 11:31:04;;;;;;;6.23;2.90;;;7.40;99.90;;;;;;5016011;28;20173;-74
2020/12/26 11:33:29;;;;;;;8.87;2.47;;;7.40;99.90;;;;;;5015400;28;20207;-73
2020/12/26 11:35:55;;;;;;;11.83;2.53;;;7.40;99.90;;;;;;5015749;28;20191;-76
2020/12/26 11:38:21;;;;;;;3.97;2.33;;;7.50;99.90;;;;;;5015982;28;20213;-76
2020/12/26 11:40:46;;;;;;;6.37;2.30;;;7.50;99.90;;;;;;5015162;28;20283;-76
2020/12/26 11:43:12;;;;;;;4.80;2.10;;;7.50;99.90;;;;;;5016716;28;20235;-75
2020/12/26 11:45:38;;;;;;;6.93;2.27;;;7.50;99.90;;;;;;5016489;28;20629;-73
2020/12/26 11:48:04;;;;;;;7.00;2.37;;;7.50;99.90;;;;;;5015986;28;20585;-73
2020/12/26 11:50:30;;;;;;;7.17;2.37;;;7.40;99.90;;;;;;5014977;28;20204;-72
2020/12/26 11:52:55;;;;;;;7.97;2.00;;;7.40;99.90;;;;;;5015968;28;20205;-72
2020/12/26 11:55:21;;;;;;;10.47;2.40;;;7.40;99.90;;;;;;5016312;28;20653;-74
2020/12/26 11:57:47;;;;;;;11.20;2.33;;;7.20;99.90;;;;;;5015480;28;20176;-74
2020/12/26 12:00:13;;;;;;;3.07;2.40;;;7.10;99.90;;;;;;5017187;28;20183;-73
2020/12/26 12:02:38;;;;;;;6.97;2.57;;;7.20;99.90;;;;;;5020586;28;20215;-74
2020/12/26 12:05:04;;;;;;;7.40;2.70;;;7.20;99.90;;;;;;5016183;28;20185;-74
2020/12/26 12:07:30;;;;;;;2.80;2.33;;;7.30;99.90;;;;;;5016264;28;20195;-74
2020/12/26 12:09:55;;;;;;;8.23;2.63;;;7.40;99.90;;;;;;5014840;28;20677;-74
2020/12/26 12:12:21;;;;;;;4.77;2.60;;;7.40;99.90;;;;;;5015917;28;20696;-73
2020/12/26 12:14:47;;;;;;;9.30;2.87;;;7.40;99.90;;;;;;5015991;28;20177;-73
2020/12/26 12:17:12;;;;;;;5.10;2.63;;;7.40;99.90;;;;;;5015731;28;20180;-73
2020/12/26 12:19:38;;;;;;;6.03;2.60;;;7.40;99.90;;;;;;5015729;28;20196;-73
2020/12/26 12:22:03;;;;;;;7.87;2.50;;;7.40;99.90;;;;;;5015120;28;20204;-73
2020/12/26 12:24:29;;;;;;;5.27;2.70;;;7.50;99.90;;;;;;5015601;28;20191;-73
2020/12/26 12:26:54;;;;;;;5.97;2.70;;;7.50;99.90;;;;;;5015042;28;20173;-72
2020/12/26 12:29:20;;;;;;;8.00;2.60;;;7.50;99.90;;;;;;5015317;28;20177;-72
2020/12/26 12:31:46;;;;;;;5.47;2.67;;;7.40;99.90;;;;;;5015122;28;20297;-72
2020/12/26 12:34:11;;;;;;;8.27;2.70;;;7.30;99.90;;;;;;5015331;28;20554;-73
2020/12/26 12:36:37;;;;;;;6.77;3.00;;;7.30;99.90;;;;;;5013906;28;20185;-73
2020/12/26 12:39:03;;;;;;;6.37;2.90;;;7.30;99.90;;;;;;5015359;28;20185;-72
2020/12/26 12:41:29;;;;;;;5.97;2.50;;;7.30;99.90;;;;;;5015249;28;20263;-73
2020/12/26 12:43:55;;;;;;;7.70;2.50;;;7.30;99.90;;;;;;5015509;28;20173;-73
2020/12/26 12:46:21;;;;;;;5.20;2.53;;;7.30;99.90;;;;;;5015184;28;20602;-73
2020/12/26 12:48:46;;;;;;;3.47;2.53;;;7.20;99.90;;;;;;5014652;28;20585;-73
2020/12/26 12:51:12;;;;;;;8.33;2.80;;;7.20;99.90;;;;;;5014894;28;20255;-72
2020/12/26 12:53:38;;;;;;;5.20;2.77;;;7.20;99.90;;;;;;5015027;28;20294;-73
2020/12/26 12:56:04;;;;;;;3.37;2.57;;;7.20;99.90;;;;;;5013362;28;20645;-74
2020/12/26 12:58:29;;;;;;;7.87;3.20;;;7.30;99.90;;;;;;5014447;28;20184;-73